Time;durP1;ratioP1;P1;durP2;ratioP2;P2;SDS_P1;SDS_P2;PMS_P1;PMS_P2;Temp;Humidity;BMP_temperature;BMP_pressure;BME280_temperature;BME280_humidity;BME280_pressure;Samples;Min_cycle;Max_cycle;Signal;HPM_P1;HPM_P2
2021/09/18 00:01:28;;;;;;;8.45;5.05;;;;;;;;;;1891786;76;21040;-50
2021/09/18 00:03:57;;;;;;;6.33;4.75;;;;;;;;;;1891393;74;21039;-49
2021/09/18 00:06:26;;;;;;;10.20;5.42;;;;;;;;;;1891589;75;21028;-50
2021/09/18 00:08:54;;;;;;;6.67;4.97;;;;;;;;;;1891449;75;21052;-49
2021/09/18 00:11:23;;;;;;;8.05;5.35;;;;;;;;;;1891472;76;21036;-50
2021/09/18 00:13:52;;;;;;;6.83;5.12;;;;;;;;;;1891589;76;21118;-48
2021/09/18 00:16:21;;;;;;;6.78;5.03;;;;;;;;;;1891575;75;21028;-47
2021/09/18 00:18:50;;;;;;;8.23;5.37;;;;;;;;;;1891593;76;21036;-50
2021/09/18 00:21:18;;;;;;;9.88;5.08;;;;;;;;;;1891622;76;21056;-49
2021/09/18 00:23:47;;;;;;;7.95;5.30;;;;;;;;;;1891592;75;21031;-48
2021/09/18 00:26:16;;;;;;;8.88;4.87;;;;;;;;;;1891469;74;21032;-47
2021/09/18 00:28:44;;;;;;;7.10;5.03;;;;;;;;;;1891449;75;21040;-49
2021/09/18 00:31:14;;;;;;;10.32;5.42;;;;;;;;;;1891468;74;21044;-49
2021/09/18 00:33:43;;;;;;;6.95;5.15;;;;;;;;;;1891581;74;21114;-51
2021/09/18 00:36:12;;;;;;;8.25;4.72;;;;;;;;;;1891489;75;21184;-50
2021/09/18 00:38:41;;;;;;;8.63;5.00;;;;;;;;;;1891471;75;21082;-47
2021/09/18 00:41:09;;;;;;;8.45;5.47;;;;;;;;;;1891481;76;21043;-50
2021/09/18 00:43:38;;;;;;;8.73;5.37;;;;;;;;;;1891590;75;21040;-50
2021/09/18 00:46:08;;;;;;;12.75;5.25;;;;;;;;;;1891580;76;21056;-50
2021/09/18 00:48:36;;;;;;;6.15;4.90;;;;;;;;;;1891771;76;21048;-49
2021/09/18 00:51:05;;;;;;;6.53;4.75;;;;;;;;;;1891582;74;21110;-50
2021/09/18 00:53:34;;;;;;;6.17;5.10;;;;;;;;;;1891673;76;21001;-50
2021/09/18 00:56:03;;;;;;;8.35;5.15;;;;;;;;;;1891520;75;21053;-48
2021/09/18 00:58:32;;;;;;;7.40;5.67;;;;;;;;;;1891531;76;21160;-49
2021/09/18 01:01:00;;;;;;;7.75;4.72;;;;;;;;;;1891704;74;21106;-50
2021/09/18 01:03:31;;;;;;;7.62;4.92;;;;;;;;;;1885761;75;21134;-49
2021/09/18 01:06:00;;;;;;;7.30;5.20;;;;;;;;;;1872972;77;21029;-48
2021/09/18 01:08:30;;;;;;;10.63;5.40;;;;;;;;;;1872704;75;21126;-50
2021/09/18 01:10:59;;;;;;;9.00;4.95;;;;;;;;;;1872952;76;21467;-50
2021/09/18 01:13:28;;;;;;;6.78;5.22;;;;;;;;;;1872833;76;21020;-50
2021/09/18 01:15:57;;;;;;;6.35;5.03;;;;;;;;;;1872938;76;21024;-50
2021/09/18 01:18:26;;;;;;;7.80;5.65;;;;;;;;;;1872929;75;21483;-46
2021/09/18 01:20:54;;;;;;;7.72;6.72;;;;;;;;;;1872870;75;21118;-49
2021/09/18 01:23:23;;;;;;;11.65;5.00;;;;;;;;;;1872705;77;21044;-49
2021/09/18 01:25:52;;;;;;;7.60;5.50;;;;;;;;;;1872792;77;21040;-50
2021/09/18 01:28:22;;;;;;;7.53;5.30;;;;;;;;;;1872633;76;21029;-49
2021/09/18 01:30:51;;;;;;;7.28;5.50;;;;;;;;;;1872730;77;21068;-47
2021/09/18 01:33:20;;;;;;;6.97;5.33;;;;;;;;;;1872632;75;21009;-49
2021/09/18 01:35:49;;;;;;;7.25;5.28;;;;;;;;;;1872834;75;21040;-48
2021/09/18 01:38:17;;;;;;;7.37;5.30;;;;;;;;;;1872805;76;21041;-50
2021/09/18 01:40:51;;;;;;;8.55;5.50;;;;;;;;;;1872954;76;21017;-48
2021/09/18 01:43:17;;;;;;;7.87;5.05;;;;;;;;;;1871559;76;21564;-48
2021/09/18 01:45:45;;;;;;;7.28;4.80;;;;;;;;;;1872845;77;21044;-47
2021/09/18 01:48:15;;;;;;;8.20;5.08;;;;;;;;;;1872937;75;21044;-47
2021/09/18 01:53:17;;;;;;;8.98;5.87;;;;;;;;;;1872947;77;21459;-50
2021/09/18 01:55:46;;;;;;;10.63;4.65;;;;;;;;;;1872071;76;21118;-50
2021/09/18 01:58:15;;;;;;;8.08;5.17;;;;;;;;;;1872917;75;21114;-48
2021/09/18 02:00:44;;;;;;;6.87;5.33;;;;;;;;;;1872925;75;21028;-48
2021/09/18 02:03:13;;;;;;;8.08;5.12;;;;;;;;;;1872930;75;21033;-48
2021/09/18 02:05:42;;;;;;;9.35;5.33;;;;;;;;;;1891566;75;21177;-49
2021/09/18 02:08:11;;;;;;;14.93;5.60;;;;;;;;;;1891468;75;21016;-50
2021/09/18 02:10:39;;;;;;;8.93;4.55;;;;;;;;;;1891538;76;21028;-49
2021/09/18 02:13:09;;;;;;;9.23;4.90;;;;;;;;;;1891496;74;21106;-48
2021/09/18 02:15:39;;;;;;;7.45;5.00;;;;;;;;;;1891673;75;21064;-48
2021/09/18 02:18:08;;;;;;;6.10;4.90;;;;;;;;;;1891697;75;21101;-50
2021/09/18 02:20:37;;;;;;;9.73;4.87;;;;;;;;;;1891538;75;21028;-50
2021/09/18 02:23:06;;;;;;;8.98;4.67;;;;;;;;;;1891492;75;21059;-49
2021/09/18 02:25:36;;;;;;;8.40;4.97;;;;;;;;;;1891596;75;21103;-50
2021/09/18 02:28:05;;;;;;;11.97;4.80;;;;;;;;;;1891560;75;21149;-50
2021/09/18 02:30:35;;;;;;;6.67;5.17;;;;;;;;;;1891549;74;21028;-48
2021/09/18 02:33:04;;;;;;;12.40;5.58;;;;;;;;;;1891492;76;21467;-49
2021/09/18 02:35:33;;;;;;;9.03;5.12;;;;;;;;;;1891540;74;21024;-49
2021/09/18 02:38:03;;;;;;;6.62;4.72;;;;;;;;;;1891456;74;21079;-49
2021/09/18 02:40:32;;;;;;;7.83;4.80;;;;;;;;;;1891621;75;21083;-49
2021/09/18 02:43:01;;;;;;;11.90;5.35;;;;;;;;;;1891580;75;21027;-48
2021/09/18 02:45:29;;;;;;;9.63;4.72;;;;;;;;;;1891543;75;21028;-47
2021/09/18 02:47:59;;;;;;;9.90;4.95;;;;;;;;;;1891460;76;21043;-48
2021/09/18 02:50:28;;;;;;;6.45;5.20;;;;;;;;;;1891376;75;21032;-49
2021/09/18 02:52:57;;;;;;;12.63;4.92;;;;;;;;;;1891520;74;21048;-49
2021/09/18 02:55:26;;;;;;;13.88;6.40;;;;;;;;;;1891523;76;21100;-48
2021/09/18 02:57:55;;;;;;;8.00;5.83;;;;;;;;;;1891616;75;21024;-48
2021/09/18 03:00:24;;;;;;;16.75;5.65;;;;;;;;;;1891508;75;21047;-49
2021/09/18 03:02:52;;;;;;;13.45;5.67;;;;;;;;;;1891500;75;21055;-48
2021/09/18 03:05:21;;;;;;;10.20;5.95;;;;;;;;;;1891523;75;21076;-48
2021/09/18 03:07:50;;;;;;;10.20;4.92;;;;;;;;;;1891553;75;21090;-47
2021/09/18 03:10:19;;;;;;;8.33;4.85;;;;;;;;;;1891617;74;20997;-50
2021/09/18 03:12:47;;;;;;;8.00;4.83;;;;;;;;;;1891616;75;21028;-49
2021/09/18 03:15:16;;;;;;;6.85;5.22;;;;;;;;;;1891621;76;21016;-49
2021/09/18 03:17:45;;;;;;;5.85;4.95;;;;;;;;;;1891460;74;21036;-49
2021/09/18 03:20:14;;;;;;;8.90;5.47;;;;;;;;;;1891527;75;21040;-48
2021/09/18 03:22:43;;;;;;;7.40;5.08;;;;;;;;;;1891638;75;21044;-48
2021/09/18 03:25:11;;;;;;;9.00;4.33;;;;;;;;;;1891629;75;21047;-46
2021/09/18 03:27:41;;;;;;;6.03;4.78;;;;;;;;;;1891559;74;21055;-49
2021/09/18 03:30:10;;;;;;;10.43;5.12;;;;;;;;;;1891596;76;21168;-49
2021/09/18 03:32:39;;;;;;;9.78;5.05;;;;;;;;;;1891517;75;21117;-48
2021/09/18 03:35:08;;;;;;;7.10;4.83;;;;;;;;;;1891499;75;21043;-48
2021/09/18 03:37:37;;;;;;;8.70;4.62;;;;;;;;;;1891493;74;21131;-47
2021/09/18 03:40:08;;;;;;;6.70;4.75;;;;;;;;;;1891464;74;21098;-48
2021/09/18 03:42:37;;;;;;;10.68;5.80;;;;;;;;;;1891572;76;21032;-49
2021/09/18 03:45:06;;;;;;;8.63;5.65;;;;;;;;;;1891617;76;21046;-50
2021/09/18 03:47:35;;;;;;;7.50;5.30;;;;;;;;;;1891556;76;21004;-50
2021/09/18 03:50:04;;;;;;;7.20;5.30;;;;;;;;;;1891535;74;21021;-47
2021/09/18 03:52:32;;;;;;;7.53;5.40;;;;;;;;;;1891433;76;21153;-50
2021/09/18 03:55:01;;;;;;;8.13;5.25;;;;;;;;;;1891413;74;21078;-49
2021/09/18 03:57:30;;;;;;;9.30;4.97;;;;;;;;;;1891540;76;21082;-49
2021/09/18 03:59:59;;;;;;;7.58;5.95;;;;;;;;;;1891598;75;21052;-47
2021/09/18 04:02:28;;;;;;;10.72;5.15;;;;;;;;;;1891489;74;21036;-50
2021/09/18 04:04:56;;;;;;;10.50;5.70;;;;;;;;;;1885691;75;21068;-47
2021/09/18 04:07:25;;;;;;;9.18;5.72;;;;;;;;;;1872946;76;21102;-49
2021/09/18 04:09:54;;;;;;;7.40;5.22;;;;;;;;;;1872824;76;21582;-49
2021/09/18 04:12:23;;;;;;;8.45;6.22;;;;;;;;;;1872708;75;21107;-46
2021/09/18 04:14:52;;;;;;;9.80;5.65;;;;;;;;;;1872824;77;21084;-50
2021/09/18 04:17:21;;;;;;;9.55;6.03;;;;;;;;;;1872823;77;21017;-49
2021/09/18 04:19:49;;;;;;;10.28;5.70;;;;;;;;;;1872765;75;21053;-47
2021/09/18 04:22:18;;;;;;;13.38;6.45;;;;;;;;;;1872768;75;21029;-50
2021/09/18 04:24:47;;;;;;;12.73;5.92;;;;;;;;;;1872811;75;21095;-49
2021/09/18 04:27:15;;;;;;;16.45;6.90;;;;;;;;;;1872599;75;21082;-47
2021/09/18 04:29:44;;;;;;;12.33;8.53;;;;;;;;;;1872600;75;21095;-47
2021/09/18 04:32:13;;;;;;;23.07;14.25;;;;;;;;;;1872582;75;21114;-46
2021/09/18 04:34:42;;;;;;;15.13;7.70;;;;;;;;;;1872676;75;21064;-48
2021/09/18 04:37:11;;;;;;;8.70;6.95;;;;;;;;;;1872773;75;21033;-49
2021/09/18 04:39:40;;;;;;;10.85;5.97;;;;;;;;;;1872740;77;21045;-46
2021/09/18 04:42:08;;;;;;;13.58;7.20;;;;;;;;;;1872671;75;21045;-49
2021/09/18 04:44:37;;;;;;;13.68;6.60;;;;;;;;;;1872706;76;21088;-48
2021/09/18 04:47:06;;;;;;;12.88;8.53;;;;;;;;;;1872724;75;21188;-47
2021/09/18 04:49:36;;;;;;;18.40;9.23;;;;;;;;;;1872772;77;21098;-46
2021/09/18 04:52:05;;;;;;;15.50;7.78;;;;;;;;;;1872815;76;21037;-47
2021/09/18 04:54:34;;;;;;;18.48;7.92;;;;;;;;;;1872806;77;21044;-50
2021/09/18 04:57:03;;;;;;;17.95;7.70;;;;;;;;;;1872681;75;21045;-46
2021/09/18 04:59:32;;;;;;;9.65;6.00;;;;;;;;;;1872838;75;21080;-47
2021/09/18 05:02:00;;;;;;;15.72;6.72;;;;;;;;;;1872585;75;21140;-49
2021/09/18 05:04:30;;;;;;;15.03;8.90;;;;;;;;;;1872782;77;21123;-45
2021/09/18 05:06:59;;;;;;;13.90;8.88;;;;;;;;;;1890766;74;21130;-48
2021/09/18 05:09:28;;;;;;;17.27;9.35;;;;;;;;;;1891298;75;21101;-48
2021/09/18 05:11:56;;;;;;;15.18;8.38;;;;;;;;;;1891501;74;21044;-46
2021/09/18 05:14:25;;;;;;;16.82;9.15;;;;;;;;;;1891460;74;21044;-46
2021/09/18 05:16:54;;;;;;;18.95;8.95;;;;;;;;;;1891459;74;21040;-49
2021/09/18 05:19:23;;;;;;;23.40;10.05;;;;;;;;;;1891458;76;21048;-46
2021/09/18 05:21:52;;;;;;;18.70;10.43;;;;;;;;;;1891511;74;21145;-47
2021/09/18 05:24:21;;;;;;;17.80;8.90;;;;;;;;;;1891490;74;21113;-48
2021/09/18 05:26:50;;;;;;;18.98;9.23;;;;;;;;;;1891329;74;21040;-48
2021/09/18 05:29:18;;;;;;;17.20;8.93;;;;;;;;;;1891144;75;21016;-48
2021/09/18 05:31:47;;;;;;;16.52;7.75;;;;;;;;;;1891335;74;21032;-48
2021/09/18 05:34:16;;;;;;;12.47;7.35;;;;;;;;;;1891453;76;21044;-46
2021/09/18 05:36:45;;;;;;;12.23;7.35;;;;;;;;;;1891489;74;21529;-46
2021/09/18 05:39:14;;;;;;;24.82;11.08;;;;;;;;;;1891446;74;21110;-46
2021/09/18 05:41:42;;;;;;;20.30;8.78;;;;;;;;;;1891475;74;21004;-46
2021/09/18 05:44:11;;;;;;;16.65;8.88;;;;;;;;;;1891567;75;21094;-50
2021/09/18 05:46:40;;;;;;;21.95;9.50;;;;;;;;;;1891628;75;21035;-48
2021/09/18 05:49:08;;;;;;;12.30;7.10;;;;;;;;;;1891470;76;21032;-47
2021/09/18 05:51:37;;;;;;;15.75;8.40;;;;;;;;;;1891560;75;21047;-46
2021/09/18 05:54:06;;;;;;;12.20;6.15;;;;;;;;;;1891463;74;21170;-47
2021/09/18 05:56:35;;;;;;;10.35;5.03;;;;;;;;;;1891390;74;21048;-47
2021/09/18 05:59:04;;;;;;;12.50;5.95;;;;;;;;;;1891402;75;21121;-46
2021/09/18 06:01:33;;;;;;;12.53;6.80;;;;;;;;;;1891386;76;21095;-47
2021/09/18 06:04:02;;;;;;;15.58;8.08;;;;;;;;;;1891482;75;21101;-46
2021/09/18 06:06:30;;;;;;;16.77;8.30;;;;;;;;;;1891432;74;21080;-48
2021/09/18 06:09:00;;;;;;;11.48;7.42;;;;;;;;;;1891554;74;21118;-48
2021/09/18 06:11:29;;;;;;;12.05;5.45;;;;;;;;;;1891539;75;21036;-47
2021/09/18 06:13:58;;;;;;;7.03;4.65;;;;;;;;;;1891564;74;21106;-47
2021/09/18 06:16:26;;;;;;;18.02;9.10;;;;;;;;;;1891569;75;21102;-46
2021/09/18 06:18:55;;;;;;;13.40;6.10;;;;;;;;;;1891519;76;21044;-47
2021/09/18 06:21:24;;;;;;;8.73;5.33;;;;;;;;;;1891576;75;21036;-47
2021/09/18 06:23:53;;;;;;;9.20;4.90;;;;;;;;;;1891517;74;21149;-47
2021/09/18 06:26:22;;;;;;;8.18;5.55;;;;;;;;;;1891464;75;21115;-47
2021/09/18 06:28:50;;;;;;;10.75;4.80;;;;;;;;;;1891557;75;21044;-47
2021/09/18 06:31:19;;;;;;;8.38;4.30;;;;;;;;;;1891363;74;21036;-47
2021/09/18 06:33:48;;;;;;;7.92;5.03;;;;;;;;;;1891586;75;21119;-46
2021/09/18 06:36:16;;;;;;;9.53;5.20;;;;;;;;;;1891437;75;21024;-47
2021/09/18 06:38:45;;;;;;;12.85;4.95;;;;;;;;;;1891461;76;21138;-46
2021/09/18 06:41:14;;;;;;;15.25;5.72;;;;;;;;;;1891474;76;21056;-49
2021/09/18 06:43:43;;;;;;;12.35;7.92;;;;;;;;;;1891576;75;21136;-48
2021/09/18 06:46:12;;;;;;;14.53;7.12;;;;;;;;;;1891393;74;21111;-47
2021/09/18 06:48:40;;;;;;;13.72;7.08;;;;;;;;;;1891491;74;21101;-49
2021/09/18 06:51:10;;;;;;;12.68;8.15;;;;;;;;;;1891534;76;21101;-47
2021/09/18 06:53:38;;;;;;;14.73;7.35;;;;;;;;;;1891558;75;21129;-45
2021/09/18 06:56:07;;;;;;;15.93;8.28;;;;;;;;;;1891590;76;21093;-47
2021/09/18 06:58:36;;;;;;;20.20;10.10;;;;;;;;;;1891519;74;21031;-46
2021/09/18 07:01:04;;;;;;;15.08;8.20;;;;;;;;;;1891522;74;21031;-46
2021/09/18 07:03:33;;;;;;;19.32;8.28;;;;;;;;;;1891505;76;21145;-47
2021/09/18 07:06:02;;;;;;;12.93;6.65;;;;;;;;;;1891328;74;21032;-50
2021/09/18 07:08:31;;;;;;;16.30;6.55;;;;;;;;;;1891450;75;21040;-47
2021/09/18 07:11:00;;;;;;;9.08;4.83;;;;;;;;;;1891454;74;21028;-48
2021/09/18 07:13:29;;;;;;;11.35;5.55;;;;;;;;;;1891552;74;21056;-49
2021/09/18 07:15:58;;;;;;;12.28;4.65;;;;;;;;;;1891334;75;21040;-47
2021/09/18 07:18:27;;;;;;;9.60;4.80;;;;;;;;;;1891443;74;21048;-47
2021/09/18 07:20:56;;;;;;;12.53;4.62;;;;;;;;;;1891435;75;21105;-46
2021/09/18 07:23:25;;;;;;;8.03;4.53;;;;;;;;;;1891418;75;21044;-47
2021/09/18 07:25:54;;;;;;;8.98;4.92;;;;;;;;;;1891435;75;21040;-49
2021/09/18 07:28:24;;;;;;;13.45;5.53;;;;;;;;;;1891527;76;21004;-47
2021/09/18 07:30:52;;;;;;;9.38;4.83;;;;;;;;;;1891446;74;21028;-47
2021/09/18 07:33:21;;;;;;;9.68;6.15;;;;;;;;;;1891506;75;21099;-46
2021/09/18 07:35:50;;;;;;;9.88;5.22;;;;;;;;;;1891404;75;21106;-49
2021/09/18 07:38:19;;;;;;;10.70;5.03;;;;;;;;;;1891546;74;21185;-46
2021/09/18 07:40:47;;;;;;;6.65;5.53;;;;;;;;;;1891445;75;21044;-47
2021/09/18 07:43:16;;;;;;;23.57;6.78;;;;;;;;;;1891390;75;21097;-47
2021/09/18 07:45:46;;;;;;;13.43;5.62;;;;;;;;;;1891423;76;21032;-49
2021/09/18 07:48:14;;;;;;;9.85;5.33;;;;;;;;;;1891458;76;21028;-46
2021/09/18 07:50:43;;;;;;;7.10;5.60;;;;;;;;;;1891355;74;21087;-47
2021/09/18 07:53:12;;;;;;;12.53;6.42;;;;;;;;;;1891475;75;21032;-47
2021/09/18 07:55:41;;;;;;;8.33;5.10;;;;;;;;;;1891593;75;21047;-46
2021/09/18 07:58:10;;;;;;;8.60;5.03;;;;;;;;;;1891464;75;21098;-46
2021/09/18 08:00:38;;;;;;;7.87;5.75;;;;;;;;;;1891503;75;21044;-46
2021/09/18 08:03:08;;;;;;;13.85;5.20;;;;;;;;;;1891479;76;21044;-46
2021/09/18 08:05:36;;;;;;;6.97;3.90;;;;;;;;;;1891705;75;21040;-47
2021/09/18 08:08:05;;;;;;;12.90;4.62;;;;;;;;;;1875784;75;21052;-46
2021/09/18 08:10:34;;;;;;;7.55;3.55;;;;;;;;;;1872858;75;21145;-49
2021/09/18 08:13:03;;;;;;;6.53;4.08;;;;;;;;;;1873001;77;21095;-48
2021/09/18 08:15:31;;;;;;;6.37;3.83;;;;;;;;;;1872777;75;21021;-46
2021/09/18 08:18:00;;;;;;;4.87;3.67;;;;;;;;;;1872807;76;21113;-47
2021/09/18 08:20:29;;;;;;;5.65;3.27;;;;;;;;;;1872929;75;21045;-46
2021/09/18 08:22:58;;;;;;;4.97;3.33;;;;;;;;;;1872793;75;21170;-46
2021/09/18 08:25:27;;;;;;;6.03;3.50;;;;;;;;;;1872892;75;21110;-48
2021/09/18 08:27:56;;;;;;;8.13;3.30;;;;;;;;;;1872867;76;21045;-47
2021/09/18 08:30:26;;;;;;;5.20;3.42;;;;;;;;;;1872751;75;21127;-47
2021/09/18 08:32:54;;;;;;;9.50;4.05;;;;;;;;;;1872759;77;21072;-47
2021/09/18 08:35:23;;;;;;;5.75;2.67;;;;;;;;;;1872683;77;21032;-48
2021/09/18 08:37:52;;;;;;;4.85;3.12;;;;;;;;;;1872805;75;21040;-47
2021/09/18 08:40:21;;;;;;;8.30;3.70;;;;;;;;;;1872669;75;21106;-50
2021/09/18 08:42:49;;;;;;;6.05;3.25;;;;;;;;;;1872753;76;21025;-46
2021/09/18 08:45:18;;;;;;;3.87;2.80;;;;;;;;;;1872755;75;21044;-50
2021/09/18 08:47:47;;;;;;;9.73;3.35;;;;;;;;;;1872624;76;21013;-47
2021/09/18 08:50:16;;;;;;;5.50;3.42;;;;;;;;;;1872743;75;21495;-46
2021/09/18 08:52:45;;;;;;;5.20;3.17;;;;;;;;;;1872768;75;21148;-48
2021/09/18 08:55:14;;;;;;;9.33;5.70;;;;;;;;;;1872631;75;21080;-48
2021/09/18 08:57:43;;;;;;;4.47;3.42;;;;;;;;;;1872626;77;21017;-47
2021/09/18 09:00:31;;;;;;;6.87;3.25;;;;;;;;;;1872710;75;21107;-49
2021/09/18 09:03:04;;;;;;;5.58;3.40;;;;;;;;;;1872675;76;21021;-46
2021/09/18 09:05:34;;;;;;;5.45;4.03;;;;;;;;;;1872728;75;21467;-50
2021/09/18 09:08:10;;;;;;;3.58;2.83;;;;;;;;;;1872718;75;21068;-47
2021/09/18 09:10:42;;;;;;;6.72;3.27;;;;;;;;;;1872667;76;21090;-48
2021/09/18 09:13:11;;;;;;;9.45;3.77;;;;;;;;;;1872598;75;21500;-50
2021/09/18 09:15:43;;;;;;;5.75;3.35;;;;;;;;;;1869969;76;21123;-49
2021/09/18 09:18:21;;;;;;;8.83;3.33;;;;;;;;;;1872708;75;21549;-46
2021/09/18 09:20:51;;;;;;;4.67;3.55;;;;;;;;;;1872729;76;21056;-48
2021/09/18 09:23:23;;;;;;;5.22;3.17;;;;;;;;;;1872742;76;21111;-49
2021/09/18 09:25:53;;;;;;;5.12;3.42;;;;;;;;;;1872693;75;21110;-50
2021/09/18 09:28:36;;;;;;;5.60;3.02;;;;;;;;;;1872767;75;20997;-47
2021/09/18 09:31:12;;;;;;;8.85;3.12;;;;;;;;;;1872664;76;21080;-48
2021/09/18 09:33:58;;;;;;;5.40;2.90;;;;;;;;;;1872638;77;21102;-48
2021/09/18 09:36:28;;;;;;;7.40;2.80;;;;;;;;;;1872710;76;21042;-49
2021/09/18 09:39:00;;;;;;;4.30;3.00;;;;;;;;;;1872686;75;21106;-51
2021/09/18 09:41:39;;;;;;;5.35;2.83;;;;;;;;;;1872721;76;21037;-50
2021/09/18 09:44:12;;;;;;;5.42;2.92;;;;;;;;;;1872928;77;21031;-49
2021/09/18 09:46:41;;;;;;;5.87;3.02;;;;;;;;;;1872748;77;21483;-51
2021/09/18 09:49:11;;;;;;;14.85;3.55;;;;;;;;;;1872679;76;21008;-51
2021/09/18 09:51:41;;;;;;;8.15;4.75;;;;;;;;;;1872555;75;21159;-48
2021/09/18 09:54:17;;;;;;;12.85;3.40;;;;;;;;;;1872774;75;21036;-51
2021/09/18 09:56:46;;;;;;;6.85;3.75;;;;;;;;;;1872715;75;21576;-50
2021/09/18 09:59:16;;;;;;;14.68;4.05;;;;;;;;;;1872729;76;21056;-52
2021/09/18 10:01:44;;;;;;;8.75;4.17;;;;;;;;;;1871933;75;21134;-49
2021/09/18 10:04:13;;;;;;;5.83;4.17;;;;;;;;;;1872712;75;21023;-51
2021/09/18 10:06:42;;;;;;;11.38;3.58;;;;;;;;;;1872691;75;21053;-49
2021/09/18 10:09:11;;;;;;;9.25;3.50;;;;;;;;;;1872751;75;21055;-48
2021/09/18 10:11:40;;;;;;;4.40;3.10;;;;;;;;;;1872819;75;21103;-48
2021/09/18 10:14:10;;;;;;;9.73;4.50;;;;;;;;;;1872841;76;21036;-50
2021/09/18 10:16:39;;;;;;;5.08;3.45;;;;;;;;;;1872698;77;21005;-48
2021/09/18 10:19:10;;;;;;;6.42;3.15;;;;;;;;;;1872733;75;21045;-47
2021/09/18 10:24:26;;;;;;;11.55;3.90;;;;;;;;;;1872720;75;21143;-50
2021/09/18 10:26:59;;;;;;;5.72;3.60;;;;;;;;;;1872671;75;21138;-49
2021/09/18 10:29:34;;;;;;;5.42;3.30;;;;;;;;;;1867048;76;21144;-50
2021/09/18 10:32:03;;;;;;;4.10;2.72;;;;;;;;;;1872906;77;21036;-50
2021/09/18 10:34:32;;;;;;;7.85;2.45;;;;;;;;;;1872754;75;21123;-49
2021/09/18 10:37:00;;;;;;;6.50;2.80;;;;;;;;;;1872584;75;21044;-50
2021/09/18 10:39:29;;;;;;;5.83;3.15;;;;;;;;;;1872655;75;21032;-51
2021/09/18 10:41:59;;;;;;;8.53;2.95;;;;;;;;;;1872756;75;21118;-50
2021/09/18 10:44:45;;;;;;;4.70;3.12;;;;;;;;;;1872609;76;21032;-49
2021/09/18 10:47:15;;;;;;;11.85;5.70;;;;;;;;;;1872600;77;21050;-51
2021/09/18 10:49:44;;;;;;;11.08;3.50;;;;;;;;;;1871171;75;21025;-49
2021/09/18 10:52:20;;;;;;;3.92;3.15;;;;;;;;;;1872770;75;21118;-51
2021/09/18 10:55:06;;;;;;;22.77;15.30;;;;;;;;;;1872939;76;21541;-48
2021/09/18 10:57:45;;;;;;;71.17;60.28;;;;;;;;;;1872821;75;21092;-49
2021/09/18 11:00:13;;;;;;;5.85;3.65;;;;;;;;;;1872733;76;21522;-49
2021/09/18 11:02:45;;;;;;;4.03;2.92;;;;;;;;;;1870967;77;21025;-50
2021/09/18 11:05:20;;;;;;;10.25;3.62;;;;;;;;;;1872938;76;21088;-49
2021/09/18 11:07:50;;;;;;;6.75;3.10;;;;;;;;;;1872835;75;21135;-49
2021/09/18 11:10:23;;;;;;;7.78;3.98;;;;;;;;;;1860807;76;21029;-51
2021/09/18 11:13:11;;;;;;;4.72;3.40;;;;;;;;;;1872815;75;21056;-51
2021/09/18 11:15:42;;;;;;;6.00;3.37;;;;;;;;;;1872754;75;21092;-51
2021/09/18 11:18:12;;;;;;;6.70;4.25;;;;;;;;;;1872725;76;21025;-50
2021/09/18 11:20:41;;;;;;;7.17;3.72;;;;;;;;;;1872787;75;21057;-50
2021/09/18 11:23:10;;;;;;;6.33;3.62;;;;;;;;;;1872840;75;21099;-51
2021/09/18 11:25:43;;;;;;;6.62;3.30;;;;;;;;;;1872592;76;21134;-51
2021/09/18 11:28:13;;;;;;;5.20;3.72;;;;;;;;;;1872512;75;21024;-50
2021/09/18 11:30:45;;;;;;;6.65;3.00;;;;;;;;;;1872690;77;21112;-51
2021/09/18 11:33:15;;;;;;;7.55;3.47;;;;;;;;;;1872736;77;21423;-50
2021/09/18 11:35:54;;;;;;;3.83;2.92;;;;;;;;;;1871903;75;21024;-50
2021/09/18 11:38:24;;;;;;;6.37;3.33;;;;;;;;;;1872811;77;21005;-50
2021/09/18 11:40:54;;;;;;;4.60;3.45;;;;;;;;;;1872582;77;21138;-51
2021/09/18 11:43:27;;;;;;;8.93;4.35;;;;;;;;;;1872086;76;21091;-51
2021/09/18 11:45:56;;;;;;;4.95;3.25;;;;;;;;;;1872592;75;21033;-51
2021/09/18 11:48:25;;;;;;;7.33;3.98;;;;;;;;;;1872568;76;21054;-52
2021/09/18 11:50:54;;;;;;;5.15;2.77;;;;;;;;;;1872782;77;21138;-51
2021/09/18 11:53:23;;;;;;;4.03;2.65;;;;;;;;;;1872838;75;21041;-49
2021/09/18 11:55:53;;;;;;;6.58;3.65;;;;;;;;;;1872804;75;21044;-49
2021/09/18 11:58:27;;;;;;;7.37;3.60;;;;;;;;;;1872250;77;21131;-48
2021/09/18 12:00:59;;;;;;;10.70;3.83;;;;;;;;;;1872792;75;21486;-51
2021/09/18 12:03:35;;;;;;;6.95;3.27;;;;;;;;;;1872792;75;21103;-51
2021/09/18 12:06:04;;;;;;;4.60;2.75;;;;;;;;;;1872651;75;21100;-50
2021/09/18 12:08:34;;;;;;;8.63;3.15;;;;;;;;;;1872664;75;21177;-51
2021/09/18 12:11:04;;;;;;;4.37;2.92;;;;;;;;;;1872603;75;21041;-50
2021/09/18 12:13:33;;;;;;;5.97;2.90;;;;;;;;;;1872816;76;21475;-51
2021/09/18 12:16:03;;;;;;;7.53;3.20;;;;;;;;;;1872735;76;21033;-49
2021/09/18 12:18:32;;;;;;;3.12;2.83;;;;;;;;;;1872658;75;21033;-50
2021/09/18 12:21:02;;;;;;;10.55;3.12;;;;;;;;;;1872681;75;21467;-51
2021/09/18 12:23:31;;;;;;;4.62;2.70;;;;;;;;;;1872581;76;21025;-52
2021/09/18 12:26:01;;;;;;;7.22;3.10;;;;;;;;;;1872827;75;21037;-52
2021/09/18 12:28:31;;;;;;;7.42;2.70;;;;;;;;;;1872783;75;21028;-51
2021/09/18 12:31:01;;;;;;;7.50;3.22;;;;;;;;;;1872757;76;21049;-50
2021/09/18 12:33:33;;;;;;;9.78;3.15;;;;;;;;;;1872916;75;21024;-51
2021/09/18 12:36:04;;;;;;;6.85;3.05;;;;;;;;;;1872706;75;21439;-48
2021/09/18 12:38:32;;;;;;;7.47;3.47;;;;;;;;;;1872682;77;21029;-50
2021/09/18 12:41:02;;;;;;;6.75;3.25;;;;;;;;;;1872786;77;21094;-48
2021/09/18 12:43:31;;;;;;;4.72;3.17;;;;;;;;;;1872720;75;21029;-48
2021/09/18 12:46:04;;;;;;;10.25;6.47;;;;;;;;;;1860604;76;21056;-51
2021/09/18 12:48:33;;;;;;;6.78;3.42;;;;;;;;;;1872620;75;21146;-50
2021/09/18 12:51:06;;;;;;;4.17;2.80;;;;;;;;;;1872847;77;21100;-52
2021/09/18 12:53:36;;;;;;;3.45;2.70;;;;;;;;;;1872787;75;21612;-51
2021/09/18 12:56:06;;;;;;;5.40;2.72;;;;;;;;;;1872691;75;21303;-48
2021/09/18 12:58:35;;;;;;;4.62;2.50;;;;;;;;;;1869849;76;21090;-48
2021/09/18 13:01:05;;;;;;;5.25;2.95;;;;;;;;;;1872646;75;21091;-51
2021/09/18 13:03:35;;;;;;;5.08;2.80;;;;;;;;;;1872677;75;21110;-48
2021/09/18 13:06:07;;;;;;;7.78;3.00;;;;;;;;;;1872702;75;21036;-48
2021/09/18 13:08:53;;;;;;;5.62;2.75;;;;;;;;;;1875343;75;21698;-51
2021/09/18 13:11:22;;;;;;;3.75;2.95;;;;;;;;;;1890871;75;21055;-49
2021/09/18 13:13:52;;;;;;;4.65;3.15;;;;;;;;;;1891404;76;21025;-50
2021/09/18 13:16:22;;;;;;;6.67;2.45;;;;;;;;;;1891471;75;21024;-49
2021/09/18 13:19:01;;;;;;;14.23;6.50;;;;;;;;;;1891413;75;21075;-49
2021/09/18 13:21:30;;;;;;;8.18;3.25;;;;;;;;;;1891410;75;21468;-50
2021/09/18 13:23:59;;;;;;;5.28;2.95;;;;;;;;;;1891309;75;21086;-51
2021/09/18 13:26:28;;;;;;;7.55;3.00;;;;;;;;;;1891246;75;21079;-49
2021/09/18 13:28:57;;;;;;;4.40;2.60;;;;;;;;;;1891282;74;21004;-49
2021/09/18 13:31:25;;;;;;;7.12;3.15;;;;;;;;;;1891208;75;21076;-51
2021/09/18 13:33:55;;;;;;;4.67;2.75;;;;;;;;;;1891407;76;21052;-49
2021/09/18 13:36:23;;;;;;;6.97;3.12;;;;;;;;;;1891387;74;21115;-50
2021/09/18 13:38:52;;;;;;;6.83;3.12;;;;;;;;;;1891650;75;21021;-49
2021/09/18 13:41:21;;;;;;;6.53;3.60;;;;;;;;;;1891533;75;21102;-49
2021/09/18 13:43:50;;;;;;;6.08;4.12;;;;;;;;;;1891577;75;21098;-50
2021/09/18 13:46:19;;;;;;;7.47;4.00;;;;;;;;;;1891666;75;21106;-49
2021/09/18 13:48:48;;;;;;;9.20;4.50;;;;;;;;;;1891661;74;21094;-52
2021/09/18 13:51:16;;;;;;;6.37;2.42;;;;;;;;;;1871401;75;21048;-48
2021/09/18 13:53:45;;;;;;;6.40;2.70;;;;;;;;;;1891653;75;21091;-48
2021/09/18 13:56:14;;;;;;;11.40;2.98;;;;;;;;;;1891741;75;21105;-49
2021/09/18 13:58:45;;;;;;;3.72;2.20;;;;;;;;;;1891639;75;21080;-49
2021/09/18 14:01:14;;;;;;;8.10;2.90;;;;;;;;;;1891749;74;21494;-49
2021/09/18 14:03:42;;;;;;;12.23;2.98;;;;;;;;;;1891644;75;21032;-49
2021/09/18 14:06:11;;;;;;;5.70;2.85;;;;;;;;;;1891732;74;21052;-49
2021/09/18 14:08:41;;;;;;;6.95;2.87;;;;;;;;;;1891568;75;21102;-52
2021/09/18 14:11:10;;;;;;;5.80;3.05;;;;;;;;;;1891566;75;21082;-49
2021/09/18 14:13:39;;;;;;;4.08;3.33;;;;;;;;;;1891763;74;21027;-51
2021/09/18 14:16:07;;;;;;;13.78;8.30;;;;;;;;;;1891642;74;21059;-50
2021/09/18 14:18:36;;;;;;;4.87;2.77;;;;;;;;;;1891648;75;21087;-52
2021/09/18 14:21:05;;;;;;;4.95;2.60;;;;;;;;;;1891617;74;21020;-49
2021/09/18 14:23:34;;;;;;;4.28;2.98;;;;;;;;;;1891785;75;21044;-48
2021/09/18 14:26:03;;;;;;;8.28;3.67;;;;;;;;;;1891563;74;21040;-48
2021/09/18 14:28:32;;;;;;;8.65;3.17;;;;;;;;;;1891768;74;21047;-49
2021/09/18 14:31:01;;;;;;;7.95;3.40;;;;;;;;;;1891610;76;21032;-49
2021/09/18 14:33:31;;;;;;;9.75;3.55;;;;;;;;;;1891588;76;21043;-52
2021/09/18 14:36:00;;;;;;;6.83;2.83;;;;;;;;;;1891557;75;21118;-50
2021/09/18 14:38:29;;;;;;;6.22;3.02;;;;;;;;;;1891509;75;21032;-50
2021/09/18 14:40:57;;;;;;;6.53;3.20;;;;;;;;;;1891628;75;21097;-48
2021/09/18 14:43:26;;;;;;;7.85;3.05;;;;;;;;;;1891634;75;21119;-52
2021/09/18 14:45:55;;;;;;;5.35;2.58;;;;;;;;;;1891513;75;21043;-52
2021/09/18 14:48:24;;;;;;;6.17;2.90;;;;;;;;;;1891648;74;21044;-51
2021/09/18 14:50:53;;;;;;;5.67;2.58;;;;;;;;;;1891513;74;21036;-51
2021/09/18 14:53:21;;;;;;;9.08;3.95;;;;;;;;;;1891605;75;21098;-49
2021/09/18 14:55:50;;;;;;;8.35;4.45;;;;;;;;;;1891612;74;21016;-49
2021/09/18 14:58:19;;;;;;;11.08;6.83;;;;;;;;;;1891627;74;21044;-51